sensor_id;sensor_type;location;lat;lon;timestamp;P1;durP1;ratioP1;P2;durP2;ratioP2
24206;SDS011;12351;52.284;9.160;2023-03-04T00:02:16;25.75;;;3.90;;
24206;SDS011;12351;52.284;9.160;2023-03-04T00:05:06;19.40;;;3.52;;
24206;SDS011;12351;52.284;9.160;2023-03-04T00:07:59;19.10;;;3.80;;
24206;SDS011;12351;52.284;9.160;2023-03-04T00:10:48;22.62;;;4.05;;
24206;SDS011;12351;52.284;9.160;2023-03-04T00:13:38;15.05;;;3.65;;
24206;SDS011;12351;52.284;9.160;2023-03-04T00:16:29;16.77;;;3.27;;
24206;SDS011;12351;52.284;9.160;2023-03-04T00:19:21;20.52;;;3.90;;
24206;SDS011;12351;52.284;9.160;2023-03-04T00:22:12;20.15;;;3.70;;
24206;SDS011;12351;52.284;9.160;2023-03-04T00:25:02;23.42;;;4.00;;
24206;SDS011;12351;52.284;9.160;2023-03-04T00:27:55;23.67;;;4.20;;
24206;SDS011;12351;52.284;9.160;2023-03-04T00:30:44;17.55;;;3.87;;
24206;SDS011;12351;52.284;9.160;2023-03-04T00:33:33;18.80;;;3.85;;
24206;SDS011;12351;52.284;9.160;2023-03-04T00:36:27;18.73;;;3.52;;
24206;SDS011;12351;52.284;9.160;2023-03-04T00:39:19;15.45;;;3.40;;
24206;SDS011;12351;52.284;9.160;2023-03-04T00:42:09;22.93;;;4.10;;
24206;SDS011;12351;52.284;9.160;2023-03-04T00:45:01;21.93;;;3.97;;
24206;SDS011;12351;52.284;9.160;2023-03-04T00:47:54;21.67;;;3.93;;
24206;SDS011;12351;52.284;9.160;2023-03-04T00:50:45;18.80;;;3.67;;
24206;SDS011;12351;52.284;9.160;2023-03-04T00:53:36;17.43;;;3.40;;
24206;SDS011;12351;52.284;9.160;2023-03-04T00:56:28;14.73;;;3.33;;
24206;SDS011;12351;52.284;9.160;2023-03-04T00:59:17;22.02;;;3.72;;
24206;SDS011;12351;52.284;9.160;2023-03-04T01:02:09;17.05;;;3.47;;
24206;SDS011;12351;52.284;9.160;2023-03-04T01:05:00;15.80;;;2.53;;
24206;SDS011;12351;52.284;9.160;2023-03-04T01:07:52;18.40;;;3.20;;
24206;SDS011;12351;52.284;9.160;2023-03-04T01:10:41;17.98;;;3.25;;
24206;SDS011;12351;52.284;9.160;2023-03-04T01:13:33;26.10;;;3.60;;
24206;SDS011;12351;52.284;9.160;2023-03-04T01:16:25;18.23;;;2.95;;
24206;SDS011;12351;52.284;9.160;2023-03-04T01:19:16;18.32;;;3.12;;
24206;SDS011;12351;52.284;9.160;2023-03-04T01:22:06;17.70;;;3.30;;
24206;SDS011;12351;52.284;9.160;2023-03-04T01:24:57;20.35;;;3.05;;
24206;SDS011;12351;52.284;9.160;2023-03-04T01:27:47;18.65;;;2.55;;
24206;SDS011;12351;52.284;9.160;2023-03-04T01:30:40;14.20;;;2.80;;
24206;SDS011;12351;52.284;9.160;2023-03-04T01:33:29;20.60;;;3.02;;
24206;SDS011;12351;52.284;9.160;2023-03-04T01:36:18;17.55;;;2.95;;
24206;SDS011;12351;52.284;9.160;2023-03-04T01:39:08;17.90;;;2.92;;
24206;SDS011;12351;52.284;9.160;2023-03-04T01:41:57;15.50;;;2.67;;
24206;SDS011;12351;52.284;9.160;2023-03-04T01:44:49;16.05;;;3.35;;
24206;SDS011;12351;52.284;9.160;2023-03-04T01:47:39;19.17;;;2.72;;
24206;SDS011;12351;52.284;9.160;2023-03-04T01:50:33;18.27;;;3.10;;
24206;SDS011;12351;52.284;9.160;2023-03-04T01:53:23;16.70;;;2.40;;
24206;SDS011;12351;52.284;9.160;2023-03-04T01:56:15;18.15;;;2.65;;
24206;SDS011;12351;52.284;9.160;2023-03-04T02:01:58;23.05;;;2.65;;
24206;SDS011;12351;52.284;9.160;2023-03-04T02:04:48;12.93;;;2.52;;
24206;SDS011;12351;52.284;9.160;2023-03-04T02:07:39;16.55;;;2.67;;
24206;SDS011;12351;52.284;9.160;2023-03-04T02:10:30;18.27;;;3.10;;
24206;SDS011;12351;52.284;9.160;2023-03-04T02:13:21;15.03;;;2.52;;
24206;SDS011;12351;52.284;9.160;2023-03-04T02:16:12;17.05;;;2.52;;
24206;SDS011;12351;52.284;9.160;2023-03-04T02:19:02;17.60;;;2.47;;
24206;SDS011;12351;52.284;9.160;2023-03-04T02:21:53;17.37;;;2.60;;
24206;SDS011;12351;52.284;9.160;2023-03-04T02:27:35;13.27;;;2.40;;
24206;SDS011;12351;52.284;9.160;2023-03-04T02:30:28;14.47;;;2.22;;
24206;SDS011;12351;52.284;9.160;2023-03-04T02:33:19;21.12;;;3.05;;
24206;SDS011;12351;52.284;9.160;2023-03-04T02:36:09;16.30;;;2.45;;
24206;SDS011;12351;52.284;9.160;2023-03-04T02:39:01;14.43;;;2.80;;
24206;SDS011;12351;52.284;9.160;2023-03-04T02:41:53;16.70;;;2.55;;
24206;SDS011;12351;52.284;9.160;2023-03-04T02:44:43;16.57;;;2.55;;
24206;SDS011;12351;52.284;9.160;2023-03-04T02:47:35;14.97;;;2.57;;
24206;SDS011;12351;52.284;9.160;2023-03-04T02:50:27;13.18;;;2.80;;
24206;SDS011;12351;52.284;9.160;2023-03-04T02:53:17;10.98;;;2.70;;
24206;SDS011;12351;52.284;9.160;2023-03-04T02:56:10;15.00;;;2.20;;
24206;SDS011;12351;52.284;9.160;2023-03-04T02:59:00;15.05;;;1.95;;
24206;SDS011;12351;52.284;9.160;2023-03-04T03:01:48;16.48;;;2.42;;
24206;SDS011;12351;52.284;9.160;2023-03-04T03:04:41;11.50;;;1.90;;
24206;SDS011;12351;52.284;9.160;2023-03-04T03:07:31;13.70;;;2.00;;
24206;SDS011;12351;52.284;9.160;2023-03-04T03:10:22;10.63;;;1.98;;
24206;SDS011;12351;52.284;9.160;2023-03-04T03:13:11;13.53;;;1.60;;
24206;SDS011;12351;52.284;9.160;2023-03-04T03:16:04;12.65;;;2.00;;
24206;SDS011;12351;52.284;9.160;2023-03-04T03:18:51;11.78;;;2.25;;
24206;SDS011;12351;52.284;9.160;2023-03-04T03:21:44;9.68;;;1.47;;
24206;SDS011;12351;52.284;9.160;2023-03-04T03:24:31;14.30;;;1.95;;
24206;SDS011;12351;52.284;9.160;2023-03-04T03:27:24;12.80;;;2.00;;
24206;SDS011;12351;52.284;9.160;2023-03-04T03:30:14;15.28;;;2.05;;
24206;SDS011;12351;52.284;9.160;2023-03-04T03:33:04;9.75;;;1.90;;
24206;SDS011;12351;52.284;9.160;2023-03-04T03:35:54;14.83;;;2.10;;
24206;SDS011;12351;52.284;9.160;2023-03-04T03:38:44;13.22;;;1.77;;
24206;SDS011;12351;52.284;9.160;2023-03-04T03:41:35;13.90;;;2.00;;
24206;SDS011;12351;52.284;9.160;2023-03-04T03:44:25;14.13;;;1.85;;
24206;SDS011;12351;52.284;9.160;2023-03-04T03:47:15;11.60;;;1.67;;
24206;SDS011;12351;52.284;9.160;2023-03-04T03:50:06;13.35;;;2.00;;
24206;SDS011;12351;52.284;9.160;2023-03-04T03:52:57;15.68;;;2.10;;
24206;SDS011;12351;52.284;9.160;2023-03-04T03:55:47;11.43;;;1.85;;
24206;SDS011;12351;52.284;9.160;2023-03-04T03:58:36;15.53;;;2.10;;
24206;SDS011;12351;52.284;9.160;2023-03-04T04:01:27;10.50;;;1.95;;
24206;SDS011;12351;52.284;9.160;2023-03-04T04:04:17;14.47;;;1.45;;
24206;SDS011;12351;52.284;9.160;2023-03-04T04:07:09;10.85;;;1.87;;
24206;SDS011;12351;52.284;9.160;2023-03-04T04:09:59;10.85;;;1.72;;
24206;SDS011;12351;52.284;9.160;2023-03-04T04:12:46;8.03;;;1.72;;
24206;SDS011;12351;52.284;9.160;2023-03-04T04:15:35;11.85;;;1.80;;
24206;SDS011;12351;52.284;9.160;2023-03-04T04:18:27;7.80;;;1.60;;
24206;SDS011;12351;52.284;9.160;2023-03-04T04:21:17;11.75;;;2.20;;
24206;SDS011;12351;52.284;9.160;2023-03-04T04:24:04;11.83;;;1.65;;
24206;SDS011;12351;52.284;9.160;2023-03-04T04:26:55;10.68;;;1.60;;
24206;SDS011;12351;52.284;9.160;2023-03-04T04:29:46;11.53;;;1.50;;
24206;SDS011;12351;52.284;9.160;2023-03-04T04:32:37;11.15;;;1.80;;
24206;SDS011;12351;52.284;9.160;2023-03-04T04:35:25;11.03;;;1.50;;
24206;SDS011;12351;52.284;9.160;2023-03-04T04:38:18;8.63;;;1.35;;
24206;SDS011;12351;52.284;9.160;2023-03-04T04:41:13;7.12;;;1.22;;
24206;SDS011;12351;52.284;9.160;2023-03-04T04:43:58;12.33;;;1.72;;
24206;SDS011;12351;52.284;9.160;2023-03-04T04:46:50;12.70;;;1.55;;
24206;SDS011;12351;52.284;9.160;2023-03-04T04:49:39;8.58;;;1.40;;
24206;SDS011;12351;52.284;9.160;2023-03-04T04:52:28;9.43;;;1.57;;
24206;SDS011;12351;52.284;9.160;2023-03-04T04:55:20;9.80;;;1.52;;
24206;SDS011;12351;52.284;9.160;2023-03-04T04:58:12;10.43;;;1.72;;
24206;SDS011;12351;52.284;9.160;2023-03-04T05:01:02;12.40;;;1.60;;
24206;SDS011;12351;52.284;9.160;2023-03-04T05:03:55;12.20;;;1.65;;
24206;SDS011;12351;52.284;9.160;2023-03-04T05:06:46;9.55;;;1.30;;
24206;SDS011;12351;52.284;9.160;2023-03-04T05:09:35;11.95;;;1.50;;
24206;SDS011;12351;52.284;9.160;2023-03-04T05:12:26;12.37;;;1.60;;
24206;SDS011;12351;52.284;9.160;2023-03-04T05:15:19;7.78;;;1.30;;
24206;SDS011;12351;52.284;9.160;2023-03-04T05:18:09;8.93;;;1.37;;
24206;SDS011;12351;52.284;9.160;2023-03-04T05:21:01;11.50;;;1.67;;
24206;SDS011;12351;52.284;9.160;2023-03-04T05:23:50;6.92;;;1.30;;
24206;SDS011;12351;52.284;9.160;2023-03-04T05:26:42;10.30;;;1.40;;
24206;SDS011;12351;52.284;9.160;2023-03-04T05:29:33;9.38;;;1.77;;
24206;SDS011;12351;52.284;9.160;2023-03-04T05:32:27;12.33;;;1.70;;
24206;SDS011;12351;52.284;9.160;2023-03-04T05:35:18;11.85;;;1.50;;
24206;SDS011;12351;52.284;9.160;2023-03-04T05:38:10;12.25;;;1.42;;
24206;SDS011;12351;52.284;9.160;2023-03-04T05:41:00;10.25;;;1.40;;
24206;SDS011;12351;52.284;9.160;2023-03-04T05:43:50;6.83;;;1.20;;
24206;SDS011;12351;52.284;9.160;2023-03-04T05:46:40;13.45;;;1.40;;
24206;SDS011;12351;52.284;9.160;2023-03-04T05:49:31;8.08;;;1.20;;
24206;SDS011;12351;52.284;9.160;2023-03-04T05:52:23;8.43;;;1.35;;
24206;SDS011;12351;52.284;9.160;2023-03-04T05:55:14;9.13;;;1.55;;
24206;SDS011;12351;52.284;9.160;2023-03-04T05:58:06;12.10;;;1.40;;
24206;SDS011;12351;52.284;9.160;2023-03-04T06:00:59;12.35;;;1.50;;
24206;SDS011;12351;52.284;9.160;2023-03-04T06:03:49;9.37;;;1.60;;
24206;SDS011;12351;52.284;9.160;2023-03-04T06:06:40;9.68;;;1.80;;
24206;SDS011;12351;52.284;9.160;2023-03-04T06:09:32;12.10;;;1.80;;
24206;SDS011;12351;52.284;9.160;2023-03-04T06:12:25;14.10;;;1.75;;
24206;SDS011;12351;52.284;9.160;2023-03-04T06:15:14;12.73;;;2.27;;
24206;SDS011;12351;52.284;9.160;2023-03-04T06:18:06;12.82;;;2.55;;
24206;SDS011;12351;52.284;9.160;2023-03-04T06:20:56;15.83;;;2.52;;
24206;SDS011;12351;52.284;9.160;2023-03-04T06:23:46;15.43;;;2.83;;
24206;SDS011;12351;52.284;9.160;2023-03-04T06:26:38;13.32;;;2.20;;
24206;SDS011;12351;52.284;9.160;2023-03-04T06:29:29;10.28;;;1.90;;
24206;SDS011;12351;52.284;9.160;2023-03-04T06:32:21;8.40;;;1.80;;
24206;SDS011;12351;52.284;9.160;2023-03-04T06:35:12;10.30;;;1.80;;
24206;SDS011;12351;52.284;9.160;2023-03-04T06:38:04;8.08;;;2.10;;
24206;SDS011;12351;52.284;9.160;2023-03-04T06:40:54;10.45;;;2.00;;
24206;SDS011;12351;52.284;9.160;2023-03-04T06:43:42;7.40;;;1.87;;
24206;SDS011;12351;52.284;9.160;2023-03-04T06:46:35;9.98;;;1.72;;
24206;SDS011;12351;52.284;9.160;2023-03-04T06:49:24;10.10;;;1.80;;
24206;SDS011;12351;52.284;9.160;2023-03-04T06:52:13;10.35;;;2.08;;
24206;SDS011;12351;52.284;9.160;2023-03-04T06:55:04;8.85;;;1.70;;
24206;SDS011;12351;52.284;9.160;2023-03-04T06:57:57;10.93;;;1.75;;
24206;SDS011;12351;52.284;9.160;2023-03-04T07:00:46;8.75;;;1.55;;
24206;SDS011;12351;52.284;9.160;2023-03-04T07:03:36;8.88;;;1.60;;
24206;SDS011;12351;52.284;9.160;2023-03-04T07:06:26;7.40;;;1.65;;
24206;SDS011;12351;52.284;9.160;2023-03-04T07:09:19;12.10;;;2.30;;
24206;SDS011;12351;52.284;9.160;2023-03-04T07:12:10;14.87;;;2.17;;
24206;SDS011;12351;52.284;9.160;2023-03-04T07:14:59;9.77;;;1.90;;
24206;SDS011;12351;52.284;9.160;2023-03-04T07:17:48;12.67;;;1.87;;
24206;SDS011;12351;52.284;9.160;2023-03-04T07:20:39;12.57;;;2.03;;
24206;SDS011;12351;52.284;9.160;2023-03-04T07:23:28;13.20;;;2.17;;
24206;SDS011;12351;52.284;9.160;2023-03-04T07:26:21;8.78;;;2.02;;
24206;SDS011;12351;52.284;9.160;2023-03-04T07:29:11;10.83;;;2.10;;
24206;SDS011;12351;52.284;9.160;2023-03-04T07:32:01;7.43;;;1.40;;
24206;SDS011;12351;52.284;9.160;2023-03-04T07:34:52;14.53;;;1.97;;
24206;SDS011;12351;52.284;9.160;2023-03-04T07:37:44;8.57;;;1.37;;
24206;SDS011;12351;52.284;9.160;2023-03-04T07:40:37;11.38;;;1.70;;
24206;SDS011;12351;52.284;9.160;2023-03-04T07:43:27;8.40;;;1.70;;
24206;SDS011;12351;52.284;9.160;2023-03-04T07:46:19;13.22;;;2.35;;
24206;SDS011;12351;52.284;9.160;2023-03-04T07:49:09;9.90;;;2.00;;
24206;SDS011;12351;52.284;9.160;2023-03-04T07:52:01;10.43;;;2.63;;
24206;SDS011;12351;52.284;9.160;2023-03-04T07:54:48;10.93;;;1.90;;
24206;SDS011;12351;52.284;9.160;2023-03-04T07:57:39;14.73;;;2.15;;
24206;SDS011;12351;52.284;9.160;2023-03-04T08:00:31;12.25;;;2.02;;
24206;SDS011;12351;52.284;9.160;2023-03-04T08:03:21;12.30;;;2.35;;
24206;SDS011;12351;52.284;9.160;2023-03-04T08:06:12;8.18;;;1.90;;
24206;SDS011;12351;52.284;9.160;2023-03-04T08:09:04;6.42;;;1.90;;
24206;SDS011;12351;52.284;9.160;2023-03-04T08:11:55;13.80;;;2.10;;
24206;SDS011;12351;52.284;9.160;2023-03-04T08:14:46;12.93;;;2.12;;
24206;SDS011;12351;52.284;9.160;2023-03-04T08:17:39;10.60;;;1.98;;
24206;SDS011;12351;52.284;9.160;2023-03-04T08:20:28;6.83;;;2.00;;
24206;SDS011;12351;52.284;9.160;2023-03-04T08:23:20;10.18;;;2.00;;
24206;SDS011;12351;52.284;9.160;2023-03-04T08:29:05;11.55;;;1.92;;
24206;SDS011;12351;52.284;9.160;2023-03-04T08:31:55;12.93;;;2.75;;
24206;SDS011;12351;52.284;9.160;2023-03-04T08:34:44;9.30;;;2.43;;
24206;SDS011;12351;52.284;9.160;2023-03-04T08:37:36;11.68;;;2.37;;
24206;SDS011;12351;52.284;9.160;2023-03-04T08:40:26;9.58;;;2.08;;
24206;SDS011;12351;52.284;9.160;2023-03-04T08:43:15;12.20;;;2.60;;
24206;SDS011;12351;52.284;9.160;2023-03-04T08:46:04;13.45;;;2.42;;
24206;SDS011;12351;52.284;9.160;2023-03-04T08:48:56;15.23;;;2.12;;
24206;SDS011;12351;52.284;9.160;2023-03-04T08:51:49;9.60;;;2.20;;
24206;SDS011;12351;52.284;9.160;2023-03-04T08:54:38;8.60;;;2.45;;
24206;SDS011;12351;52.284;9.160;2023-03-04T08:57:28;10.48;;;2.00;;
24206;SDS011;12351;52.284;9.160;2023-03-04T09:00:17;10.23;;;2.02;;
24206;SDS011;12351;52.284;9.160;2023-03-04T09:03:09;7.67;;;2.08;;
24206;SDS011;12351;52.284;9.160;2023-03-04T09:06:00;11.43;;;2.05;;
24206;SDS011;12351;52.284;9.160;2023-03-04T09:11:41;8.10;;;2.05;;
24206;SDS011;12351;52.284;9.160;2023-03-04T09:14:33;5.78;;;2.35;;
24206;SDS011;12351;52.284;9.160;2023-03-04T09:17:23;10.43;;;2.10;;
24206;SDS011;12351;52.284;9.160;2023-03-04T09:20:14;7.17;;;1.90;;
24206;SDS011;12351;52.284;9.160;2023-03-04T09:23:06;9.88;;;1.95;;
24206;SDS011;12351;52.284;9.160;2023-03-04T09:25:59;7.37;;;1.92;;
24206;SDS011;12351;52.284;9.160;2023-03-04T09:28:52;5.22;;;1.50;;
24206;SDS011;12351;52.284;9.160;2023-03-04T09:31:42;4.78;;;1.30;;
24206;SDS011;12351;52.284;9.160;2023-03-04T09:34:32;5.50;;;1.50;;
24206;SDS011;12351;52.284;9.160;2023-03-04T09:37:20;7.62;;;1.47;;
24206;SDS011;12351;52.284;9.160;2023-03-04T09:43:09;7.60;;;1.85;;
24206;SDS011;12351;52.284;9.160;2023-03-04T09:45:58;5.55;;;1.50;;
24206;SDS011;12351;52.284;9.160;2023-03-04T09:48:49;6.62;;;1.70;;
24206;SDS011;12351;52.284;9.160;2023-03-04T09:57:22;4.65;;;1.75;;
24206;SDS011;12351;52.284;9.160;2023-03-04T10:00:14;6.95;;;1.90;;
24206;SDS011;12351;52.284;9.160;2023-03-04T10:05:55;5.47;;;1.87;;
24206;SDS011;12351;52.284;9.160;2023-03-04T10:11:39;11.35;;;2.37;;
24206;SDS011;12351;52.284;9.160;2023-03-04T10:17:21;10.77;;;2.93;;
24206;SDS011;12351;52.284;9.160;2023-03-04T10:20:12;10.05;;;2.27;;
24206;SDS011;12351;52.284;9.160;2023-03-04T10:23:07;9.53;;;2.33;;
24206;SDS011;12351;52.284;9.160;2023-03-04T10:25:53;9.13;;;2.25;;
24206;SDS011;12351;52.284;9.160;2023-03-04T10:28:44;15.45;;;2.30;;
24206;SDS011;12351;52.284;9.160;2023-03-04T10:31:36;12.75;;;2.47;;
24206;SDS011;12351;52.284;9.160;2023-03-04T10:34:25;10.60;;;2.77;;
24206;SDS011;12351;52.284;9.160;2023-03-04T10:37:15;6.83;;;2.22;;
24206;SDS011;12351;52.284;9.160;2023-03-04T10:40:11;9.75;;;2.22;;
24206;SDS011;12351;52.284;9.160;2023-03-04T10:42:57;9.20;;;2.25;;
24206;SDS011;12351;52.284;9.160;2023-03-04T10:45:48;10.82;;;2.12;;
24206;SDS011;12351;52.284;9.160;2023-03-04T10:48:40;6.28;;;1.70;;
24206;SDS011;12351;52.284;9.160;2023-03-04T10:51:30;8.93;;;2.27;;
24206;SDS011;12351;52.284;9.160;2023-03-04T11:00:24;8.98;;;1.75;;
24206;SDS011;12351;52.284;9.160;2023-03-04T11:02:52;8.60;;;1.47;;
24206;SDS011;12351;52.284;9.160;2023-03-04T11:05:43;10.95;;;1.57;;
24206;SDS011;12351;52.284;9.160;2023-03-04T11:08:32;13.08;;;1.60;;
24206;SDS011;12351;52.284;9.160;2023-03-04T11:11:22;12.37;;;1.87;;
24206;SDS011;12351;52.284;9.160;2023-03-04T11:17:15;7.15;;;1.45;;
24206;SDS011;12351;52.284;9.160;2023-03-04T11:19:57;7.60;;;1.27;;
24206;SDS011;12351;52.284;9.160;2023-03-04T11:22:45;7.03;;;1.30;;
24206;SDS011;12351;52.284;9.160;2023-03-04T11:25:37;11.20;;;1.57;;
24206;SDS011;12351;52.284;9.160;2023-03-04T11:28:33;7.10;;;1.77;;
24206;SDS011;12351;52.284;9.160;2023-03-04T11:37:02;6.37;;;1.60;;
24206;SDS011;12351;52.284;9.160;2023-03-04T11:39:51;12.00;;;2.17;;
24206;SDS011;12351;52.284;9.160;2023-03-04T11:59:42;5.80;;;1.05;;
24206;SDS011;12351;52.284;9.160;2023-03-04T12:02:19;5.30;;;0.93;;
24206;SDS011;12351;52.284;9.160;2023-03-04T12:05:15;6.25;;;1.22;;
24206;SDS011;12351;52.284;9.160;2023-03-04T12:08:07;4.60;;;1.42;;
24206;SDS011;12351;52.284;9.160;2023-03-04T12:19:31;8.50;;;1.20;;
24206;SDS011;12351;52.284;9.160;2023-03-04T12:30:57;4.58;;;1.22;;
24206;SDS011;12351;52.284;9.160;2023-03-04T12:33:49;8.05;;;1.30;;
24206;SDS011;12351;52.284;9.160;2023-03-04T12:36:37;8.58;;;1.45;;
24206;SDS011;12351;52.284;9.160;2023-03-04T12:53:43;11.95;;;2.17;;
24206;SDS011;12351;52.284;9.160;2023-03-04T12:59:12;8.50;;;1.70;;
24206;SDS011;12351;52.284;9.160;2023-03-04T13:07:47;6.80;;;1.50;;
24206;SDS011;12351;52.284;9.160;2023-03-04T13:10:26;8.53;;;1.87;;
24206;SDS011;12351;52.284;9.160;2023-03-04T13:18:57;7.72;;;1.70;;
24206;SDS011;12351;52.284;9.160;2023-03-04T13:21:49;9.63;;;1.82;;
24206;SDS011;12351;52.284;9.160;2023-03-04T13:24:43;6.85;;;1.85;;
24206;SDS011;12351;52.284;9.160;2023-03-04T13:36:01;10.95;;;2.12;;
24206;SDS011;12351;52.284;9.160;2023-03-04T13:41:46;10.30;;;1.55;;
24206;SDS011;12351;52.284;9.160;2023-03-04T13:47:29;6.72;;;1.30;;
24206;SDS011;12351;52.284;9.160;2023-03-04T13:59:00;4.03;;;1.60;;
24206;SDS011;12351;52.284;9.160;2023-03-04T14:04:37;7.67;;;1.47;;
24206;SDS011;12351;52.284;9.160;2023-03-04T14:07:27;9.68;;;1.60;;
24206;SDS011;12351;52.284;9.160;2023-03-04T14:10:20;9.58;;;1.87;;
24206;SDS011;12351;52.284;9.160;2023-03-04T14:13:10;6.45;;;1.52;;
24206;SDS011;12351;52.284;9.160;2023-03-04T14:15:59;7.80;;;1.60;;
24206;SDS011;12351;52.284;9.160;2023-03-04T14:21:42;7.47;;;1.60;;
24206;SDS011;12351;52.284;9.160;2023-03-04T14:24:30;11.97;;;1.57;;
24206;SDS011;12351;52.284;9.160;2023-03-04T14:27:20;12.33;;;1.70;;
24206;SDS011;12351;52.284;9.160;2023-03-04T14:33:00;9.13;;;1.60;;
24206;SDS011;12351;52.284;9.160;2023-03-04T14:35:50;7.62;;;1.60;;
24206;SDS011;12351;52.284;9.160;2023-03-04T14:38:42;9.98;;;2.10;;
24206;SDS011;12351;52.284;9.160;2023-03-04T14:41:32;11.80;;;2.27;;
24206;SDS011;12351;52.284;9.160;2023-03-04T14:47:15;7.03;;;1.82;;
24206;SDS011;12351;52.284;9.160;2023-03-04T14:50:05;12.35;;;2.27;;
24206;SDS011;12351;52.284;9.160;2023-03-04T14:58:50;9.38;;;2.55;;
24206;SDS011;12351;52.284;9.160;2023-03-04T15:04:21;12.65;;;2.12;;
24206;SDS011;12351;52.284;9.160;2023-03-04T15:07:15;13.55;;;2.27;;
24206;SDS011;12351;52.284;9.160;2023-03-04T15:10:07;11.28;;;2.22;;
24206;SDS011;12351;52.284;9.160;2023-03-04T15:12:57;9.80;;;1.80;;
24206;SDS011;12351;52.284;9.160;2023-03-04T15:15:58;8.83;;;1.50;;
24206;SDS011;12351;52.284;9.160;2023-03-04T15:21:37;4.58;;;1.10;;
24206;SDS011;12351;52.284;9.160;2023-03-04T15:24:27;7.50;;;1.45;;
24206;SDS011;12351;52.284;9.160;2023-03-04T15:27:16;5.90;;;1.15;;
24206;SDS011;12351;52.284;9.160;2023-03-04T15:30:14;9.60;;;1.85;;
24206;SDS011;12351;52.284;9.160;2023-03-04T15:35:52;11.68;;;1.98;;
24206;SDS011;12351;52.284;9.160;2023-03-04T15:38:43;9.00;;;1.75;;
24206;SDS011;12351;52.284;9.160;2023-03-04T15:41:35;8.90;;;1.70;;
24206;SDS011;12351;52.284;9.160;2023-03-04T15:44:24;10.10;;;1.65;;
24206;SDS011;12351;52.284;9.160;2023-03-04T15:47:13;13.62;;;1.80;;
24206;SDS011;12351;52.284;9.160;2023-03-04T15:50:03;10.88;;;1.90;;
24206;SDS011;12351;52.284;9.160;2023-03-04T15:52:56;8.95;;;2.02;;
24206;SDS011;12351;52.284;9.160;2023-03-04T15:55:47;11.63;;;2.50;;
24206;SDS011;12351;52.284;9.160;2023-03-04T15:58:36;8.58;;;1.52;;
24206;SDS011;12351;52.284;9.160;2023-03-04T16:01:26;8.90;;;1.90;;
24206;SDS011;12351;52.284;9.160;2023-03-04T16:04:17;11.22;;;2.08;;
24206;SDS011;12351;52.284;9.160;2023-03-04T16:07:07;10.85;;;2.10;;
24206;SDS011;12351;52.284;9.160;2023-03-04T16:10:00;15.43;;;1.95;;
24206;SDS011;12351;52.284;9.160;2023-03-04T16:12:49;18.02;;;2.80;;
24206;SDS011;12351;52.284;9.160;2023-03-04T16:15:40;8.08;;;1.72;;
24206;SDS011;12351;52.284;9.160;2023-03-04T16:18:32;9.43;;;1.82;;
24206;SDS011;12351;52.284;9.160;2023-03-04T16:21:25;10.63;;;1.90;;
24206;SDS011;12351;52.284;9.160;2023-03-04T16:24:16;12.20;;;2.17;;
24206;SDS011;12351;52.284;9.160;2023-03-04T16:29:57;11.65;;;2.00;;
24206;SDS011;12351;52.284;9.160;2023-03-04T16:32:50;11.80;;;2.50;;
24206;SDS011;12351;52.284;9.160;2023-03-04T16:35:40;10.53;;;1.90;;
24206;SDS011;12351;52.284;9.160;2023-03-04T16:38:33;13.88;;;2.30;;
24206;SDS011;12351;52.284;9.160;2023-03-04T16:41:24;11.38;;;2.12;;
24206;SDS011;12351;52.284;9.160;2023-03-04T16:44:12;10.93;;;1.80;;
24206;SDS011;12351;52.284;9.160;2023-03-04T16:47:03;13.60;;;1.80;;
24206;SDS011;12351;52.284;9.160;2023-03-04T16:49:53;11.90;;;1.92;;
24206;SDS011;12351;52.284;9.160;2023-03-04T16:52:46;7.37;;;1.60;;
24206;SDS011;12351;52.284;9.160;2023-03-04T16:55:38;12.88;;;2.20;;
24206;SDS011;12351;52.284;9.160;2023-03-04T16:58:27;12.88;;;3.00;;
24206;SDS011;12351;52.284;9.160;2023-03-04T17:01:16;8.38;;;1.62;;
24206;SDS011;12351;52.284;9.160;2023-03-04T17:04:10;14.65;;;1.98;;
24206;SDS011;12351;52.284;9.160;2023-03-04T17:06:58;12.85;;;2.27;;
24206;SDS011;12351;52.284;9.160;2023-03-04T17:09:50;17.23;;;3.00;;
24206;SDS011;12351;52.284;9.160;2023-03-04T17:12:42;15.43;;;3.70;;
24206;SDS011;12351;52.284;9.160;2023-03-04T17:15:33;14.58;;;2.58;;
24206;SDS011;12351;52.284;9.160;2023-03-04T17:18:27;21.15;;;5.95;;
24206;SDS011;12351;52.284;9.160;2023-03-04T17:21:17;17.07;;;2.50;;
24206;SDS011;12351;52.284;9.160;2023-03-04T17:24:08;16.37;;;2.50;;
24206;SDS011;12351;52.284;9.160;2023-03-04T17:26:56;17.12;;;2.45;;
24206;SDS011;12351;52.284;9.160;2023-03-04T17:29:45;13.45;;;2.27;;
24206;SDS011;12351;52.284;9.160;2023-03-04T17:32:37;15.80;;;2.75;;
24206;SDS011;12351;52.284;9.160;2023-03-04T17:35:28;13.50;;;2.50;;
24206;SDS011;12351;52.284;9.160;2023-03-04T17:38:17;12.25;;;2.52;;
24206;SDS011;12351;52.284;9.160;2023-03-04T17:41:10;12.75;;;2.95;;
24206;SDS011;12351;52.284;9.160;2023-03-04T17:46:52;15.23;;;4.55;;
24206;SDS011;12351;52.284;9.160;2023-03-04T17:49:42;13.50;;;2.63;;
24206;SDS011;12351;52.284;9.160;2023-03-04T17:52:32;17.57;;;2.60;;
24206;SDS011;12351;52.284;9.160;2023-03-04T17:55:23;13.88;;;2.50;;
24206;SDS011;12351;52.284;9.160;2023-03-04T17:58:15;25.52;;;9.85;;
24206;SDS011;12351;52.284;9.160;2023-03-04T18:01:06;17.48;;;4.53;;
24206;SDS011;12351;52.284;9.160;2023-03-04T18:03:57;17.17;;;4.40;;
24206;SDS011;12351;52.284;9.160;2023-03-04T18:06:46;12.35;;;2.37;;
24206;SDS011;12351;52.284;9.160;2023-03-04T18:09:36;20.08;;;2.90;;
24206;SDS011;12351;52.284;9.160;2023-03-04T18:12:27;14.98;;;2.20;;
24206;SDS011;12351;52.284;9.160;2023-03-04T18:15:17;13.58;;;2.52;;
24206;SDS011;12351;52.284;9.160;2023-03-04T18:18:05;14.63;;;2.58;;
24206;SDS011;12351;52.284;9.160;2023-03-04T18:20:55;14.53;;;2.45;;
24206;SDS011;12351;52.284;9.160;2023-03-04T18:23:48;16.50;;;2.98;;
24206;SDS011;12351;52.284;9.160;2023-03-04T18:26:35;13.85;;;3.08;;
24206;SDS011;12351;52.284;9.160;2023-03-04T18:29:26;20.02;;;4.55;;
24206;SDS011;12351;52.284;9.160;2023-03-04T18:32:19;14.68;;;2.50;;
24206;SDS011;12351;52.284;9.160;2023-03-04T18:35:10;10.20;;;2.08;;
24206;SDS011;12351;52.284;9.160;2023-03-04T18:38:03;17.70;;;8.45;;
24206;SDS011;12351;52.284;9.160;2023-03-04T18:40:53;11.83;;;4.22;;
24206;SDS011;12351;52.284;9.160;2023-03-04T18:43:41;14.10;;;2.80;;
24206;SDS011;12351;52.284;9.160;2023-03-04T18:46:33;11.15;;;2.62;;
24206;SDS011;12351;52.284;9.160;2023-03-04T18:49:22;11.65;;;2.47;;
24206;SDS011;12351;52.284;9.160;2023-03-04T18:52:11;12.03;;;2.55;;
24206;SDS011;12351;52.284;9.160;2023-03-04T18:55:02;14.73;;;3.67;;
24206;SDS011;12351;52.284;9.160;2023-03-04T18:57:53;14.10;;;4.80;;
24206;SDS011;12351;52.284;9.160;2023-03-04T19:00:44;13.00;;;3.00;;
24206;SDS011;12351;52.284;9.160;2023-03-04T19:03:35;14.68;;;2.50;;
24206;SDS011;12351;52.284;9.160;2023-03-04T19:06:27;12.78;;;3.52;;
24206;SDS011;12351;52.284;9.160;2023-03-04T19:09:20;9.48;;;3.33;;
24206;SDS011;12351;52.284;9.160;2023-03-04T19:12:10;16.37;;;3.50;;
24206;SDS011;12351;52.284;9.160;2023-03-04T19:15:02;10.98;;;2.12;;
24206;SDS011;12351;52.284;9.160;2023-03-04T19:17:54;7.03;;;2.00;;
24206;SDS011;12351;52.284;9.160;2023-03-04T19:20:45;19.73;;;5.30;;
24206;SDS011;12351;52.284;9.160;2023-03-04T19:23:33;10.32;;;2.33;;
24206;SDS011;12351;52.284;9.160;2023-03-04T19:26:25;15.90;;;2.50;;
24206;SDS011;12351;52.284;9.160;2023-03-04T19:29:15;11.83;;;2.00;;
24206;SDS011;12351;52.284;9.160;2023-03-04T19:32:07;11.80;;;2.25;;
24206;SDS011;12351;52.284;9.160;2023-03-04T19:34:56;12.78;;;2.05;;
24206;SDS011;12351;52.284;9.160;2023-03-04T19:37:45;11.20;;;2.27;;